createdAt,value
2019-03-16T00:01:02.292Z,98513.83
2019-03-16T00:03:09.393Z,98506.25
2019-03-16T00:05:16.396Z,98511.98
2019-03-16T00:07:32.859Z,98510.46
2019-03-16T00:09:33.428Z,98524.41
2019-03-16T00:11:40.850Z,98526.47
2019-03-16T00:13:48.060Z,98520.89
2019-03-16T00:15:55.482Z,98525.13
2019-03-16T00:18:02.525Z,98530.55
2019-03-16T00:20:12.416Z,98532.93
2019-03-16T00:22:20.021Z,98528.33
2019-03-16T00:24:27.140Z,98538.16
2019-03-16T00:26:34.315Z,98538.83
2019-03-16T00:28:41.902Z,98533.41
2019-03-16T00:30:50.220Z,98540.54
2019-03-16T00:32:58.892Z,98523.42
2019-03-16T00:35:07.340Z,98526.97
2019-03-16T00:37:14.832Z,98544.87
2019-03-16T00:39:22.532Z,98537.00
2019-03-16T00:41:30.409Z,98536.60
2019-03-16T00:43:37.413Z,98526.58
2019-03-16T00:45:44.389Z,98529.33
2019-03-16T00:47:51.598Z,98517.22
2019-03-16T00:49:58.820Z,98528.19
2019-03-16T00:52:06.445Z,98519.82
2019-03-16T00:54:14.198Z,98526.18
2019-03-16T00:56:21.227Z,98526.64
2019-03-16T00:58:29.511Z,98516.00
2019-03-16T01:00:36.684Z,98517.84
2019-03-16T01:02:44.971Z,98516.16
2019-03-16T01:04:52.177Z,98501.83
2019-03-16T01:06:59.174Z,98502.58
2019-03-16T01:09:08.357Z,98509.42
2019-03-16T01:11:15.349Z,98519.36
2019-03-16T01:13:22.962Z,98496.23
2019-03-16T01:15:30.136Z,98491.48
2019-03-16T01:17:37.034Z,98498.13
2019-03-16T01:19:44.565Z,98512.25
2019-03-16T01:22:12.377Z,98525.42
2019-03-16T01:24:19.324Z,98509.02
2019-03-16T01:26:26.352Z,98529.19
2019-03-16T01:28:33.330Z,98502.27
2019-03-16T01:30:40.633Z,98521.66
2019-03-16T01:32:47.760Z,98529.03
2019-03-16T01:34:54.941Z,98521.97
2019-03-16T01:37:02.021Z,98527.87
2019-03-16T01:39:09.728Z,98546.52
2019-03-16T01:41:16.804Z,98527.02
2019-03-16T01:43:24.004Z,98534.45
2019-03-16T01:45:31.286Z,98546.73
2019-03-16T01:47:38.826Z,98565.69
2019-03-16T01:49:45.957Z,98576.94
2019-03-16T01:51:53.462Z,98555.33
2019-03-16T01:54:00.493Z,98577.19
2019-03-16T01:56:07.779Z,98583.07
2019-03-16T01:58:15.419Z,98588.08
2019-03-16T02:00:22.651Z,98611.35
2019-03-16T02:02:30.151Z,98594.32
2019-03-16T02:04:37.636Z,98630.10
2019-03-16T02:06:44.992Z,98623.73
2019-03-16T02:08:52.611Z,98632.19
2019-03-16T02:11:01.313Z,98632.10
2019-03-16T02:13:09.740Z,98659.42
2019-03-16T02:15:17.458Z,98660.16
2019-03-16T02:17:26.154Z,98674.76
2019-03-16T02:19:35.791Z,98692.27
2019-03-16T02:21:42.279Z,98665.67
2019-03-16T02:23:49.449Z,98676.75
2019-03-16T02:25:57.443Z,98690.41
2019-03-16T02:28:05.101Z,98674.61
2019-03-16T02:30:13.561Z,98686.38
2019-03-16T02:32:20.564Z,98705.39
2019-03-16T02:34:28.291Z,98694.27
2019-03-16T02:36:36.015Z,98706.96
2019-03-16T02:38:43.301Z,98714.09
2019-03-16T02:40:50.263Z,98709.61
2019-03-16T02:42:58.249Z,98711.94
2019-03-16T02:45:07.405Z,98715.98
2019-03-16T02:47:15.201Z,98722.56
2019-03-16T02:49:22.335Z,98727.36
2019-03-16T02:51:29.976Z,98734.39
2019-03-16T02:53:38.002Z,98752.72
2019-03-16T02:55:45.262Z,98738.47
2019-03-16T02:57:52.571Z,98746.67
2019-03-16T03:00:00.459Z,98751.42
2019-03-16T03:02:08.295Z,98752.32
2019-03-16T03:04:15.439Z,98749.77
2019-03-16T03:06:22.371Z,98757.20
2019-03-16T03:08:29.773Z,98767.60
2019-03-16T03:10:37.124Z,98778.45
2019-03-16T03:12:44.427Z,98785.00
2019-03-16T03:14:51.578Z,98784.55
2019-03-16T03:16:58.605Z,98786.70
2019-03-16T03:19:05.783Z,98804.45
2019-03-16T03:21:12.884Z,98804.50
2019-03-16T03:23:19.928Z,98808.03
2019-03-16T03:25:26.820Z,98812.83
2019-03-16T03:27:33.707Z,98819.86
2019-03-16T03:29:40.652Z,98826.80
2019-03-16T03:31:47.490Z,98839.41
2019-03-16T03:34:00.863Z,98837.70
2019-03-16T03:36:03.782Z,98847.73
2019-03-16T03:38:10.829Z,98853.88
2019-03-16T03:40:19.356Z,98860.33
2019-03-16T03:42:26.303Z,98874.22
2019-03-16T03:44:33.442Z,98869.88
2019-03-16T03:46:40.549Z,98884.62
2019-03-16T03:48:48.178Z,98886.48
2019-03-16T03:50:55.392Z,98892.54
2019-03-16T03:53:02.788Z,98908.98
2019-03-16T03:55:12.406Z,98905.13
2019-03-16T03:57:19.839Z,98914.64
2019-03-16T03:59:27.397Z,98915.53
2019-03-16T04:01:34.512Z,98925.16
2019-03-16T04:04:15.127Z,98930.42
2019-03-16T04:06:12.359Z,98941.72
2019-03-16T04:08:19.534Z,98938.22
2019-03-16T04:10:27.208Z,98944.20
2019-03-16T04:12:36.380Z,98943.23
2019-03-16T04:14:45.154Z,98950.30
2019-03-16T04:16:52.289Z,98955.13
2019-03-16T04:18:59.360Z,98956.02
2019-03-16T04:21:07.763Z,98959.92
2019-03-16T04:23:14.924Z,98980.72
2019-03-16T04:25:22.420Z,98971.09
2019-03-16T04:27:30.262Z,98978.45
2019-03-16T04:29:37.372Z,98982.34
2019-03-16T04:31:44.931Z,98991.11
2019-03-16T04:33:52.658Z,98972.06
2019-03-16T04:36:00.384Z,99006.64
2019-03-16T04:38:08.269Z,99007.16
2019-03-16T04:40:15.999Z,99013.77
2019-03-16T04:42:26.331Z,99009.09
2019-03-16T04:44:33.527Z,99038.98
2019-03-16T04:46:41.028Z,99025.91
2019-03-16T04:48:48.553Z,99040.21
2019-03-16T04:50:55.997Z,99050.95
2019-03-16T04:53:03.534Z,99056.14
2019-03-16T04:55:12.177Z,99067.40
2019-03-16T04:57:20.874Z,99066.55
2019-03-16T04:59:28.258Z,99063.16
2019-03-16T05:01:35.566Z,99091.34
2019-03-16T05:03:43.122Z,99097.47
2019-03-16T05:05:50.924Z,99092.72
2019-03-16T05:07:58.504Z,99093.20
2019-03-16T05:10:10.543Z,99098.40
2019-03-16T05:12:17.766Z,99111.80
2019-03-16T05:14:25.244Z,99117.45
2019-03-16T05:16:32.636Z,99123.47
2019-03-16T05:18:39.802Z,99122.16
2019-03-16T05:20:46.771Z,99129.97
2019-03-16T05:22:54.385Z,99142.04
2019-03-16T05:25:01.556Z,99141.56
2019-03-16T05:27:09.222Z,99132.56
2019-03-16T05:29:16.383Z,99163.80
2019-03-16T05:31:23.625Z,99153.44
2019-03-16T05:33:30.456Z,99170.74
2019-03-16T05:35:38.780Z,99167.83
2019-03-16T05:37:46.367Z,99173.85
2019-03-16T05:40:06.547Z,99176.45
2019-03-16T05:42:13.315Z,99188.49
2019-03-16T05:44:20.202Z,99186.64
2019-03-16T05:46:27.051Z,99197.90
2019-03-16T05:48:34.883Z,99202.14
2019-03-16T05:50:42.248Z,99210.93
2019-03-16T05:52:48.924Z,99206.17
2019-03-16T05:54:55.899Z,99198.03
2019-03-16T05:57:02.463Z,99215.55
2019-03-16T05:59:09.178Z,99226.52
2019-03-16T06:01:15.835Z,99233.08
2019-03-16T06:03:22.555Z,99246.45
2019-03-16T06:05:29.499Z,99241.36
2019-03-16T06:07:36.207Z,99257.33
2019-03-16T06:09:43.158Z,99253.05
2019-03-16T06:11:49.821Z,99262.05
2019-03-16T06:13:56.681Z,99268.08
2019-03-16T06:16:03.700Z,99277.20
2019-03-16T06:18:13.101Z,99280.72
2019-03-16T06:20:19.067Z,99294.16
2019-03-16T06:22:25.891Z,99307.70
2019-03-16T06:24:33.347Z,99302.53
2019-03-16T06:26:40.420Z,99307.79
2019-03-16T06:28:47.050Z,99306.94
2019-03-16T06:30:54.538Z,99315.14
2019-03-16T06:33:01.384Z,99326.84
2019-03-16T06:35:08.663Z,99322.56
2019-03-16T06:37:15.344Z,99321.64
2019-03-16T06:39:22.030Z,99335.88
2019-03-16T06:41:28.917Z,99332.13
2019-03-16T06:43:35.621Z,99354.38
2019-03-16T06:45:42.413Z,99354.51
2019-03-16T06:47:50.502Z,99361.95
2019-03-16T06:49:57.422Z,99366.52
2019-03-16T06:52:04.272Z,99369.13
2019-03-16T06:54:11.074Z,99370.95
2019-03-16T06:56:18.046Z,99382.86
2019-03-16T06:58:24.915Z,99385.97
2019-03-16T07:00:31.610Z,99382.92
2019-03-16T07:02:38.441Z,99382.48
2019-03-16T07:04:45.329Z,99383.59
2019-03-16T07:06:53.312Z,99389.17
2019-03-16T07:08:59.895Z,99397.27
2019-03-16T07:11:06.673Z,99391.03
2019-03-16T07:13:13.546Z,99399.95
2019-03-16T07:15:20.339Z,99405.59
2019-03-16T07:17:27.101Z,99408.83
2019-03-16T07:19:34.129Z,99413.59
2019-03-16T07:21:40.932Z,99415.23
2019-03-16T07:23:47.652Z,99423.89
2019-03-16T07:25:55.201Z,99428.65
2019-03-16T07:28:01.809Z,99434.30
2019-03-16T07:30:16.574Z,99431.16
2019-03-16T07:32:23.367Z,99428.34
2019-03-16T07:34:30.171Z,99440.30
2019-03-16T07:36:36.970Z,99449.50
2019-03-16T07:38:43.787Z,99459.27
2019-03-16T07:40:50.397Z,99455.69
2019-03-16T07:42:57.270Z,99466.80
2019-03-16T07:45:08.500Z,99468.89
2019-03-16T07:47:12.350Z,99468.06
2019-03-16T07:49:19.126Z,99471.91
2019-03-16T07:51:26.197Z,99477.02
2019-03-16T07:53:32.964Z,99497.48
2019-03-16T07:55:42.241Z,99493.89
2019-03-16T07:57:49.316Z,99498.80
2019-03-16T07:59:56.220Z,99498.03
2019-03-16T08:02:03.060Z,99504.52
2019-03-16T08:04:10.128Z,99508.70
2019-03-16T08:06:16.906Z,99515.93
2019-03-16T08:08:23.802Z,99520.08
2019-03-16T08:10:30.486Z,99520.98
2019-03-16T08:12:37.271Z,99520.74
2019-03-16T08:14:44.083Z,99530.13
2019-03-16T08:16:50.932Z,99532.19
2019-03-16T08:18:58.726Z,99537.30
2019-03-16T08:21:05.503Z,99535.00
2019-03-16T08:23:12.178Z,99539.66
2019-03-16T08:25:18.970Z,99543.05
2019-03-16T08:27:25.853Z,99553.23
2019-03-16T08:29:32.424Z,99548.44
2019-03-16T08:31:39.363Z,99543.42
2019-03-16T08:33:46.372Z,99566.31
2019-03-16T08:35:53.079Z,99575.56
2019-03-16T08:37:59.952Z,99557.55
2019-03-16T08:40:10.383Z,99555.84
2019-03-16T08:42:17.046Z,99581.14
2019-03-16T08:44:23.829Z,99582.56
2019-03-16T08:46:30.671Z,99578.47
2019-03-16T08:48:38.552Z,99592.05
2019-03-16T08:50:45.097Z,99593.81
2019-03-16T08:52:53.950Z,99607.61
2019-03-16T08:55:01.102Z,99615.84
2019-03-16T08:57:09.876Z,99621.03
2019-03-16T08:59:16.632Z,99629.09
2019-03-16T09:01:23.458Z,99634.52
2019-03-16T09:03:42.709Z,99642.94
2019-03-16T09:05:39.215Z,99651.77
2019-03-16T09:07:46.208Z,99656.31
2019-03-16T09:09:53.045Z,99668.66
2019-03-16T09:12:01.350Z,99661.42
2019-03-16T09:14:08.154Z,99677.48
2019-03-16T09:16:15.046Z,99675.12
2019-03-16T09:18:21.929Z,99687.16
2019-03-16T09:20:28.620Z,99683.90
2019-03-16T09:22:35.414Z,99680.73
2019-03-16T09:24:44.692Z,99688.02
2019-03-16T09:26:51.908Z,99693.61
2019-03-16T09:29:00.344Z,99692.82
2019-03-16T09:31:07.507Z,99673.90
2019-03-16T09:33:19.149Z,99682.58
2019-03-16T09:35:26.905Z,99696.27
2019-03-16T09:37:36.560Z,99694.45
2019-03-16T09:39:49.814Z,99696.40
2019-03-16T09:42:00.695Z,99693.31
2019-03-16T09:44:11.852Z,99694.06
2019-03-16T09:46:24.327Z,99700.97
2019-03-16T09:48:31.875Z,99695.27
2019-03-16T09:50:38.839Z,99708.02
2019-03-16T09:52:52.795Z,99715.97
2019-03-16T09:55:00.438Z,99712.20
2019-03-16T09:57:07.608Z,99700.70
2019-03-16T09:59:17.747Z,99701.37
2019-03-16T10:01:29.574Z,99699.01
2019-03-16T10:03:42.591Z,99718.13
2019-03-16T10:05:55.217Z,99721.38
2019-03-16T10:08:07.940Z,99724.36
2019-03-16T10:10:19.583Z,99729.52
2019-03-16T10:12:27.055Z,99742.26
2019-03-16T10:14:37.031Z,99748.01
2019-03-16T10:16:42.660Z,99761.83
2019-03-16T10:18:49.628Z,99756.19
2019-03-16T10:20:56.601Z,99749.61
2019-03-16T10:23:03.375Z,99763.01
2019-03-16T10:25:13.413Z,99776.83
2019-03-16T10:27:28.965Z,99766.08
2019-03-16T10:29:41.615Z,99761.25
2019-03-16T10:31:55.034Z,99761.99
2019-03-16T10:34:05.671Z,99755.24
2019-03-16T10:36:18.970Z,99765.00
2019-03-16T10:38:31.800Z,99753.08
2019-03-16T10:40:45.665Z,99772.55
2019-03-16T10:42:58.021Z,99775.16
2019-03-16T10:45:11.621Z,99772.39
2019-03-16T10:47:32.280Z,99769.14
2019-03-16T10:49:50.978Z,99780.42
2019-03-16T10:51:59.429Z,99795.00
2019-03-16T10:54:06.911Z,99814.59
2019-03-16T10:56:14.927Z,99806.73
2019-03-16T10:58:22.727Z,99811.47
2019-03-16T11:00:30.392Z,99818.66
2019-03-16T11:02:38.043Z,99815.47
2019-03-16T11:04:45.454Z,99813.44
2019-03-16T11:06:53.201Z,99813.19
2019-03-16T11:09:10.585Z,99814.33
2019-03-16T11:11:33.705Z,99827.31
2019-03-16T11:13:45.337Z,99831.76
2019-03-16T11:15:57.920Z,99840.48
2019-03-16T11:18:10.801Z,99841.72
2019-03-16T11:20:22.736Z,99827.15
2019-03-16T11:22:51.872Z,99836.86
2019-03-16T11:25:07.366Z,99828.35
2019-03-16T11:27:19.489Z,99825.00
2019-03-16T11:29:30.591Z,99832.87
2019-03-16T11:31:40.021Z,99841.72
2019-03-16T11:33:48.631Z,99839.18
2019-03-16T11:35:55.740Z,99855.05
2019-03-16T11:38:03.159Z,99849.91
2019-03-16T11:40:17.791Z,99852.02
2019-03-16T11:42:26.290Z,99853.83
2019-03-16T11:44:37.021Z,99851.89
2019-03-16T11:46:50.787Z,99853.63
2019-03-16T11:49:07.215Z,99848.98
2019-03-16T11:51:20.893Z,99860.16
2019-03-16T11:53:34.891Z,99857.89
2019-03-16T11:55:42.804Z,99859.84
2019-03-16T11:57:53.884Z,99864.52
2019-03-16T12:00:00.911Z,99861.56
2019-03-16T12:02:07.831Z,99868.32
2019-03-16T12:04:14.729Z,99878.70
2019-03-16T12:06:21.750Z,99870.95
2019-03-16T12:08:28.663Z,99880.63
2019-03-16T12:10:35.819Z,99869.73
2019-03-16T12:12:42.905Z,99876.03
2019-03-16T12:14:49.904Z,99879.44
2019-03-16T12:16:56.903Z,99874.50
2019-03-16T12:19:03.923Z,99877.22
2019-03-16T12:21:10.944Z,99883.02
2019-03-16T12:23:17.793Z,99883.89
2019-03-16T12:25:24.682Z,99885.79
2019-03-16T12:27:31.493Z,99890.91
2019-03-16T12:29:38.276Z,99891.90
2019-03-16T12:31:45.173Z,99895.36
2019-03-16T12:33:52.179Z,99890.12
2019-03-16T12:35:59.163Z,99891.61
2019-03-16T12:38:06.009Z,99901.51
2019-03-16T12:40:15.323Z,99903.70
2019-03-16T12:42:22.311Z,99902.48
2019-03-16T12:44:29.052Z,99909.30
2019-03-16T12:46:35.950Z,99916.47
2019-03-16T12:48:42.881Z,99919.17
2019-03-16T12:50:50.246Z,99922.61
2019-03-16T12:53:02.217Z,99910.70
2019-03-16T12:55:17.483Z,99911.89
2019-03-16T12:57:28.970Z,99915.86
2019-03-16T12:59:46.934Z,99918.11
2019-03-16T13:02:00.368Z,99909.97
2019-03-16T13:04:10.601Z,99919.30
2019-03-16T13:06:19.158Z,99926.63
2019-03-16T13:08:26.625Z,99925.27
2019-03-16T13:10:34.257Z,99922.66
2019-03-16T13:12:42.913Z,99929.40
2019-03-16T13:14:50.114Z,99919.37
2019-03-16T13:16:57.145Z,99916.38
2019-03-16T13:19:04.143Z,99917.19
2019-03-16T13:21:11.058Z,99910.80
2019-03-16T13:23:18.438Z,99909.63
2019-03-16T13:25:25.819Z,99909.70
2019-03-16T13:27:32.883Z,99904.70
2019-03-16T13:29:40.581Z,99902.44
2019-03-16T13:31:47.518Z,99897.42
2019-03-16T13:33:54.849Z,99908.86
2019-03-16T13:36:03.847Z,99905.59
2019-03-16T13:38:13.314Z,99904.76
2019-03-16T13:40:22.832Z,99898.76
2019-03-16T13:42:29.893Z,99904.73
2019-03-16T13:44:36.965Z,99904.95
2019-03-16T13:46:51.029Z,99907.39
2019-03-16T13:48:58.985Z,99896.17
2019-03-16T13:51:09.074Z,99902.53
2019-03-16T13:53:23.225Z,99900.06
2019-03-16T13:55:36.771Z,99899.93
2019-03-16T13:57:48.559Z,99901.17
2019-03-16T14:00:11.227Z,99903.02
2019-03-16T14:02:21.535Z,99899.34
2019-03-16T14:04:32.443Z,99899.84
2019-03-16T14:06:44.996Z,99903.52
2019-03-16T14:09:02.728Z,99901.17
2019-03-16T14:11:16.657Z,99897.51
2019-03-16T14:13:29.889Z,99898.85
2019-03-16T14:15:45.077Z,99900.08
2019-03-16T14:17:58.676Z,99900.08
2019-03-16T14:20:16.089Z,99920.84
2019-03-16T14:22:27.648Z,99916.41
2019-03-16T14:24:40.404Z,99916.22
2019-03-16T14:27:03.878Z,99922.45
2019-03-16T14:29:14.051Z,99922.81
2019-03-16T14:31:22.148Z,99922.19
2019-03-16T14:33:30.386Z,99925.13
2019-03-16T14:35:38.839Z,99925.00
2019-03-16T14:37:47.340Z,99933.19
2019-03-16T14:39:55.307Z,99930.55
2019-03-16T14:42:02.922Z,99933.45
2019-03-16T14:44:10.472Z,99924.73
2019-03-16T14:46:18.284Z,99937.20
2019-03-16T14:48:25.512Z,99932.14
2019-03-16T14:50:37.001Z,99935.20
2019-03-16T14:52:48.134Z,99933.98
2019-03-16T14:55:00.449Z,99923.22
2019-03-16T14:57:13.650Z,99943.04
2019-03-16T14:59:21.292Z,99947.48
2019-03-16T15:01:30.787Z,99947.37
2019-03-16T15:03:39.551Z,99944.36
2019-03-16T15:05:50.604Z,99949.06
2019-03-16T15:07:59.404Z,99946.45
2019-03-16T15:10:15.415Z,99947.16
2019-03-16T15:12:26.132Z,99947.27
2019-03-16T15:14:34.615Z,99947.75
2019-03-16T15:16:45.143Z,99948.52
2019-03-16T15:18:56.284Z,99947.87
2019-03-16T15:21:02.896Z,99943.52
2019-03-16T15:23:10.170Z,99949.09
2019-03-16T15:25:17.121Z,99943.52
2019-03-16T15:27:24.271Z,99941.94
2019-03-16T15:29:34.037Z,99940.86
2019-03-16T15:31:42.849Z,99942.48
2019-03-16T15:33:53.422Z,99948.70
2019-03-16T15:36:03.340Z,99946.74
2019-03-16T15:38:12.171Z,99950.11
2019-03-16T15:40:21.735Z,99951.14
2019-03-16T15:42:31.254Z,99957.31
2019-03-16T15:44:38.662Z,99948.92
2019-03-16T15:46:46.086Z,99957.19
2019-03-16T15:48:54.598Z,99956.45
2019-03-16T15:51:01.753Z,99952.69
2019-03-16T15:53:10.256Z,99956.25
2019-03-16T15:55:18.692Z,99955.97
2019-03-16T15:57:25.933Z,99949.91
2019-03-16T15:59:35.923Z,99955.76
2019-03-16T16:01:43.376Z,99958.59
2019-03-16T16:03:50.248Z,99960.99
2019-03-16T16:05:57.114Z,99960.13
2019-03-16T16:08:04.117Z,99966.47
2019-03-16T16:10:16.406Z,99968.88
2019-03-16T16:12:24.502Z,99970.34
2019-03-16T16:14:31.453Z,99967.55
2019-03-16T16:16:38.521Z,99968.56
2019-03-16T16:18:45.369Z,99964.88
2019-03-16T16:20:52.509Z,99965.10
2019-03-16T16:23:03.450Z,99961.86
2019-03-16T16:25:15.451Z,99961.63
2019-03-16T16:27:24.708Z,99971.47
2019-03-16T16:29:34.950Z,99962.91
2019-03-16T16:31:45.625Z,99965.30
2019-03-16T16:33:55.513Z,99972.06
2019-03-16T16:36:03.732Z,99976.09
2019-03-16T16:38:19.093Z,99974.97
2019-03-16T16:40:32.767Z,99976.08
2019-03-16T16:42:40.505Z,99980.67
2019-03-16T16:44:48.141Z,99982.56
2019-03-16T16:46:57.187Z,99988.45
2019-03-16T16:49:04.190Z,99995.65
2019-03-16T16:51:13.376Z,99984.53
2019-03-16T16:53:21.345Z,99983.50
2019-03-16T16:55:31.946Z,99987.73
2019-03-16T16:57:44.350Z,99990.06
2019-03-16T16:59:58.277Z,99989.41
2019-03-16T17:02:09.047Z,99992.66
2019-03-16T17:04:20.335Z,99988.43
2019-03-16T17:06:30.946Z,99985.91
2019-03-16T17:08:42.456Z,99980.86
2019-03-16T17:10:52.136Z,99984.45
2019-03-16T17:12:59.526Z,99984.05
2019-03-16T17:15:09.801Z,99982.84
2019-03-16T17:17:17.160Z,99983.28
2019-03-16T17:19:24.147Z,99984.65
2019-03-16T17:21:31.426Z,99994.75
2019-03-16T17:23:40.806Z,99995.73
2019-03-16T17:25:48.078Z,100000.55
2019-03-16T17:27:56.502Z,99999.33
2019-03-16T17:30:04.395Z,99997.23
2019-03-16T17:32:11.789Z,100005.19
2019-03-16T17:34:19.068Z,100008.66
2019-03-16T17:36:26.721Z,100012.06
2019-03-16T17:38:33.881Z,100007.35
2019-03-16T17:40:41.084Z,100006.94
2019-03-16T17:42:48.244Z,100012.57
2019-03-16T17:44:55.596Z,100009.90
2019-03-16T17:47:03.082Z,100017.73
2019-03-16T17:49:10.631Z,100013.02
2019-03-16T17:51:19.626Z,100019.98
2019-03-16T17:53:28.729Z,100022.59
2019-03-16T17:55:36.072Z,100014.83
2019-03-16T17:57:45.418Z,100016.99
2019-03-16T17:59:53.071Z,100017.82
2019-03-16T18:01:59.987Z,100022.59
2019-03-16T18:04:09.014Z,100025.21
2019-03-16T18:06:16.284Z,100028.74
2019-03-16T18:08:23.278Z,100024.00
2019-03-16T18:10:30.556Z,100020.17
2019-03-16T18:12:39.500Z,100016.26
2019-03-16T18:14:46.622Z,100015.45
2019-03-16T18:16:55.219Z,100013.83
2019-03-16T18:19:03.184Z,100013.41
2019-03-16T18:21:10.985Z,100017.84
2019-03-16T18:23:18.111Z,100012.73
2019-03-16T18:25:26.057Z,100011.08
2019-03-16T18:27:36.221Z,100010.30
2019-03-16T18:29:43.302Z,100012.56
2019-03-16T18:31:52.735Z,100013.52
2019-03-16T18:34:01.349Z,100014.40
2019-03-16T18:36:11.649Z,100015.34
2019-03-16T18:38:20.724Z,100018.84
2019-03-16T18:40:29.174Z,100018.84
2019-03-16T18:42:36.256Z,100021.04
2019-03-16T18:44:44.814Z,100014.13
2019-03-16T18:46:55.264Z,100014.13
2019-03-16T18:49:04.075Z,100008.50
2019-03-16T18:51:11.035Z,100008.52
2019-03-16T18:53:20.633Z,100009.45
2019-03-16T18:55:28.649Z,100010.69
2019-03-16T18:57:35.593Z,100010.78
2019-03-16T18:59:43.429Z,100013.00
2019-03-16T19:01:51.570Z,100013.89
2019-03-16T19:03:58.631Z,100012.17
2019-03-16T19:06:05.721Z,100006.95
2019-03-16T19:08:12.657Z,100003.03
2019-03-16T19:10:19.855Z,100000.02
2019-03-16T19:12:28.175Z,99997.47
2019-03-16T19:14:35.172Z,100000.96
2019-03-16T19:16:42.454Z,99996.19
2019-03-16T19:18:49.916Z,99995.80
2019-03-16T19:20:56.882Z,99999.72
2019-03-16T19:23:04.174Z,99998.80
2019-03-16T19:25:22.795Z,100001.02
2019-03-16T19:27:30.416Z,100000.61
2019-03-16T19:29:37.835Z,99997.97
2019-03-16T19:31:44.858Z,99995.83
2019-03-16T19:33:53.018Z,99996.25
2019-03-16T19:36:01.915Z,100000.10
2019-03-16T19:38:13.234Z,99992.34
2019-03-16T19:40:24.429Z,99989.28
2019-03-16T19:42:31.462Z,99991.89
2019-03-16T19:44:38.860Z,99987.56
2019-03-16T19:46:45.955Z,99993.58
2019-03-16T19:48:52.955Z,99989.28
2019-03-16T19:51:04.183Z,99984.95
2019-03-16T19:53:12.313Z,99987.14
2019-03-16T19:55:20.453Z,99986.77
2019-03-16T19:57:30.093Z,99985.91
2019-03-16T19:59:41.605Z,99991.06
2019-03-16T20:01:51.349Z,99992.42
2019-03-16T20:04:01.023Z,99986.34
2019-03-16T20:06:11.574Z,99982.44
2019-03-16T20:08:19.519Z,99990.94
2019-03-16T20:10:27.529Z,99983.36
2019-03-16T20:12:35.052Z,99987.18
2019-03-16T20:14:42.646Z,99987.53
2019-03-16T20:16:50.536Z,99997.34
2019-03-16T20:19:06.783Z,99989.08
2019-03-16T20:21:17.508Z,99990.80
2019-03-16T20:23:27.210Z,99997.26
2019-03-16T20:25:39.661Z,99998.12
2019-03-16T20:27:55.719Z,99996.91
2019-03-16T20:30:07.103Z,99997.34
2019-03-16T20:32:16.281Z,100000.02
2019-03-16T20:34:26.621Z,100010.06
2019-03-16T20:36:36.523Z,100011.44
2019-03-16T20:38:46.992Z,100007.99
2019-03-16T20:40:55.440Z,100007.16
2019-03-16T20:43:05.218Z,100007.20
2019-03-16T20:45:14.907Z,100011.61
2019-03-16T20:47:22.784Z,100017.80
2019-03-16T20:49:29.804Z,100026.96
2019-03-16T20:51:37.074Z,100014.84
2019-03-16T20:53:44.881Z,100025.30
2019-03-16T20:55:51.865Z,100019.72
2019-03-16T20:57:59.016Z,100020.25
2019-03-16T21:00:17.633Z,100022.06
2019-03-16T21:02:24.701Z,100025.20
2019-03-16T21:04:31.713Z,100022.61
2019-03-16T21:06:38.668Z,100025.73
2019-03-16T21:08:45.587Z,100025.31
2019-03-16T21:10:52.507Z,100024.89
2019-03-16T21:12:59.706Z,100025.41
2019-03-16T21:15:16.443Z,100032.46
2019-03-16T21:17:23.494Z,100022.98
2019-03-16T21:19:30.456Z,100032.16
2019-03-16T21:21:37.360Z,100033.07
2019-03-16T21:23:47.321Z,100030.97
2019-03-16T21:25:54.249Z,100035.40
2019-03-16T21:28:01.251Z,100037.20
2019-03-16T21:30:23.119Z,100039.89
2019-03-16T21:32:31.517Z,100047.81
2019-03-16T21:34:38.625Z,100040.87
2019-03-16T21:36:45.623Z,100044.14
2019-03-16T21:38:52.972Z,100040.83
2019-03-16T21:40:59.898Z,100037.46
2019-03-16T21:43:06.885Z,100044.05
2019-03-16T21:45:15.357Z,100040.28
2019-03-16T21:47:22.250Z,100031.62
2019-03-16T21:49:29.255Z,100034.69
2019-03-16T21:51:36.190Z,100028.62
2019-03-16T21:53:43.232Z,100028.67
2019-03-16T21:55:50.349Z,100024.88
2019-03-16T21:57:57.379Z,100017.28
2019-03-16T22:00:06.255Z,100022.56
2019-03-16T22:02:13.276Z,100017.72
2019-03-16T22:04:20.164Z,100013.91
2019-03-16T22:06:27.181Z,100006.16
2019-03-16T22:08:35.221Z,100004.42
2019-03-16T22:10:42.028Z,100001.88
2019-03-16T22:12:49.455Z,100000.17
2019-03-16T22:14:56.304Z,100002.83
2019-03-16T22:17:03.423Z,100002.85
2019-03-16T22:19:10.233Z,100001.98
2019-03-16T22:21:17.368Z,100001.11
2019-03-16T22:23:24.204Z,99997.70
2019-03-16T22:25:32.593Z,100000.69
2019-03-16T22:27:40.597Z,99995.91
2019-03-16T22:29:48.676Z,99994.59
2019-03-16T22:31:55.341Z,99995.48
2019-03-16T22:34:02.241Z,99992.44
2019-03-16T22:36:09.110Z,99986.88
2019-03-16T22:38:16.236Z,99985.73
2019-03-16T22:40:23.202Z,99981.89
2019-03-16T22:42:29.952Z,99987.01
2019-03-16T22:44:36.733Z,99980.06
2019-03-16T22:46:43.536Z,99977.41
2019-03-16T22:48:50.429Z,99975.66
2019-03-16T22:50:57.451Z,99977.75
2019-03-16T22:53:04.135Z,99975.52
2019-03-16T22:55:10.912Z,99968.14
2019-03-16T22:57:17.625Z,99963.06
2019-03-16T22:59:24.686Z,99967.83
2019-03-16T23:01:32.236Z,99970.43
2019-03-16T23:03:39.164Z,99963.50
2019-03-16T23:05:46.975Z,99963.50
2019-03-16T23:07:53.704Z,99952.67
2019-03-16T23:10:01.594Z,99953.97
2019-03-16T23:12:08.461Z,99955.69
2019-03-16T23:14:15.901Z,99950.63
2019-03-16T23:16:25.752Z,99944.47
2019-03-16T23:18:38.215Z,99943.11
2019-03-16T23:20:45.701Z,99944.05
2019-03-16T23:22:52.959Z,99941.02
2019-03-16T23:25:00.299Z,99928.01
2019-03-16T23:27:07.831Z,99920.64
2019-03-16T23:29:15.116Z,99918.09
2019-03-16T23:31:22.323Z,99921.94
2019-03-16T23:33:29.442Z,99915.05
2019-03-16T23:35:36.553Z,99915.88
2019-03-16T23:37:43.715Z,99908.06
2019-03-16T23:39:50.779Z,99914.98
2019-03-16T23:41:57.715Z,99899.42
2019-03-16T23:44:04.393Z,99895.91
2019-03-16T23:46:11.277Z,99898.51
2019-03-16T23:48:18.064Z,99902.47
2019-03-16T23:50:24.795Z,99893.30
2019-03-16T23:52:31.813Z,99898.12
2019-03-16T23:54:38.541Z,99891.62
2019-03-16T23:56:45.214Z,99888.52
2019-03-16T23:58:52.101Z,99892.06
